createdAt,value
2023-01-19T00:00:26.911Z,98742.50
2023-01-19T00:03:29.484Z,98743.66
2023-01-19T00:06:32.505Z,98747.41
2023-01-19T00:09:38.506Z,98726.16
2023-01-19T00:12:40.909Z,98715.09
2023-01-19T00:15:45.142Z,98734.59
2023-01-19T00:18:48.028Z,98732.75
2023-01-19T00:21:50.717Z,98738.44
2023-01-19T00:24:52.984Z,98711.03
2023-01-19T00:27:57.099Z,98729.81
2023-01-19T00:30:59.935Z,98730.50
2023-01-19T00:34:03.918Z,98719.34
2023-01-19T00:37:07.439Z,98738.69
2023-01-19T00:40:10.675Z,98720.72
2023-01-19T00:43:12.994Z,98747.22
2023-01-19T00:46:15.798Z,98721.63
2023-01-19T00:49:18.701Z,98740.97
2023-01-19T00:52:21.487Z,98741.19
2023-01-19T00:55:24.046Z,98738.44
2023-01-19T00:58:26.943Z,98736.06
2023-01-19T01:01:45.056Z,98735.28
2023-01-19T01:04:54.773Z,98725.59
2023-01-19T01:07:57.474Z,98710.59
2023-01-19T01:11:01.027Z,98696.38
2023-01-19T01:14:03.289Z,98700.69
2023-01-19T01:17:06.087Z,98724.12
2023-01-19T01:20:09.140Z,98717.53
2023-01-19T01:23:14.388Z,98709.56
2023-01-19T01:26:16.648Z,98692.72
2023-01-19T01:29:19.266Z,98703.41
2023-01-19T01:32:21.616Z,98702.25
2023-01-19T01:35:24.274Z,98705.47
2023-01-19T01:38:26.696Z,98719.34
2023-01-19T01:41:29.578Z,98717.28
2023-01-19T01:44:54.640Z,98716.84
2023-01-19T01:48:13.285Z,98726.16
2023-01-19T01:51:30.976Z,98702.47
2023-01-19T01:54:33.811Z,98729.31
2023-01-19T01:57:39.017Z,98704.41
2023-01-19T02:01:00.945Z,98740.81
2023-01-19T02:04:03.718Z,98719.44
2023-01-19T02:07:24.439Z,98754.28
2023-01-19T02:10:45.717Z,98764.28
2023-01-19T02:13:48.772Z,98760.75
2023-01-19T02:16:51.745Z,98731.38
2023-01-19T02:19:54.350Z,98734.13
2023-01-19T02:23:03.871Z,98696.59
2023-01-19T02:26:09.565Z,98695.91
2023-01-19T02:29:16.353Z,98718.88
2023-01-19T02:32:18.694Z,98733.34
2023-01-19T02:35:22.545Z,98731.84
2023-01-19T02:38:28.090Z,98771.91
2023-01-19T02:41:35.902Z,98752.81
2023-01-19T02:44:39.548Z,98709.78
2023-01-19T02:47:51.166Z,98731.41
2023-01-19T02:51:04.137Z,98719.34
2023-01-19T02:54:24.573Z,98682.91
2023-01-19T02:57:34.457Z,98694.06
2023-01-19T03:00:46.900Z,98699.50
2023-01-19T03:04:23.259Z,98739.69
2023-01-19T03:07:44.866Z,98739.34
2023-01-19T03:11:07.500Z,98743.19
2023-01-19T03:14:20.162Z,98728.87
2023-01-19T03:17:22.696Z,98742.22
2023-01-19T03:20:28.806Z,98738.25
2023-01-19T03:23:34.758Z,98740.41
2023-01-19T03:26:44.180Z,98780.84
2023-01-19T03:29:52.190Z,98754.62
2023-01-19T03:33:05.197Z,98739.28
2023-01-19T03:36:27.367Z,98699.47
2023-01-19T03:39:30.842Z,98714.94
2023-01-19T03:42:33.973Z,98672.41
2023-01-19T03:45:39.207Z,98650.34
2023-01-19T03:48:42.176Z,98680.03
2023-01-19T03:51:45.324Z,98667.63
2023-01-19T03:54:48.252Z,98703.81
2023-01-19T03:57:50.880Z,98714.72
2023-01-19T04:00:55.335Z,98705.16
2023-01-19T04:03:58.172Z,98692.03
2023-01-19T04:07:01.356Z,98734.72
2023-01-19T04:10:04.271Z,98715.34
2023-01-19T04:13:06.879Z,98728.66
2023-01-19T04:16:10.681Z,98732.19
2023-01-19T04:19:13.010Z,98709.59
2023-01-19T04:22:15.657Z,98734.88
2023-01-19T04:25:17.967Z,98746.69
2023-01-19T04:28:20.720Z,98747.38
2023-01-19T04:31:23.485Z,98733.41
2023-01-19T04:34:26.128Z,98715.19
2023-01-19T04:37:28.504Z,98724.09
2023-01-19T04:40:31.142Z,98726.34
2023-01-19T04:43:33.866Z,98726.75
2023-01-19T04:46:36.506Z,98705.09
2023-01-19T04:49:38.981Z,98693.91
2023-01-19T04:52:41.576Z,98697.44
2023-01-19T04:55:44.126Z,98681.31
2023-01-19T04:58:46.738Z,98722.13
2023-01-19T05:01:49.075Z,98722.13
2023-01-19T05:04:52.286Z,98729.56
2023-01-19T05:07:54.953Z,98738.34
2023-01-19T05:10:57.981Z,98763.69
2023-01-19T05:14:00.411Z,98727.47
2023-01-19T05:17:04.968Z,98751.00
2023-01-19T05:20:09.328Z,98722.28
2023-01-19T05:23:11.943Z,98744.88
2023-01-19T05:26:14.485Z,98760.72
2023-01-19T05:29:17.183Z,98768.41
2023-01-19T05:32:19.489Z,98762.56
2023-01-19T05:35:31.251Z,98789.56
2023-01-19T05:38:37.317Z,98764.94
2023-01-19T05:41:40.006Z,98767.38
2023-01-19T05:44:42.344Z,98769.06
2023-01-19T05:47:44.884Z,98784.09
2023-01-19T05:50:49.488Z,98779.44
2023-01-19T05:53:52.335Z,98761.03
2023-01-19T05:56:54.613Z,98749.41
2023-01-19T05:59:57.234Z,98766.94
2023-01-19T06:03:01.021Z,98745.25
2023-01-19T06:06:04.183Z,98734.44
2023-01-19T06:09:07.885Z,98727.81
2023-01-19T06:12:10.417Z,98716.91
2023-01-19T06:15:14.175Z,98749.91
2023-01-19T06:18:16.850Z,98707.38
2023-01-19T06:21:19.204Z,98730.47
2023-01-19T06:24:23.123Z,98694.47
2023-01-19T06:27:25.512Z,98720.13
2023-01-19T06:30:29.092Z,98720.34
2023-01-19T06:33:31.573Z,98710.38
2023-01-19T06:36:34.171Z,98729.91
2023-01-19T06:39:37.999Z,98722.13
2023-01-19T06:42:41.240Z,98758.53
2023-01-19T06:45:46.095Z,98773.19
2023-01-19T06:48:49.563Z,98774.31
2023-01-19T06:51:51.920Z,98783.75
2023-01-19T06:54:54.548Z,98774.56
2023-01-19T06:57:59.649Z,98744.66
2023-01-19T07:01:06.995Z,98745.28
2023-01-19T07:04:10.730Z,98769.59
2023-01-19T07:07:13.310Z,98768.78
2023-01-19T07:10:16.407Z,98762.00
2023-01-19T07:13:19.021Z,98732.88
2023-01-19T07:16:21.657Z,98755.19
2023-01-19T07:19:24.506Z,98697.22
2023-01-19T07:22:26.783Z,98727.41
2023-01-19T07:25:30.310Z,98748.44
2023-01-19T07:28:33.620Z,98783.38
2023-01-19T07:31:36.436Z,98788.97
2023-01-19T07:34:38.983Z,98759.94
2023-01-19T07:37:41.608Z,98754.72
2023-01-19T07:40:44.129Z,98767.00
2023-01-19T07:43:46.791Z,98768.50
2023-01-19T07:46:51.190Z,98785.22
2023-01-19T07:49:54.068Z,98786.47
2023-01-19T07:52:56.530Z,98794.81
2023-01-19T07:55:59.272Z,98777.25
2023-01-19T07:59:01.719Z,98801.06
2023-01-19T08:02:04.943Z,98784.50
2023-01-19T08:05:08.486Z,98781.25
2023-01-19T08:08:13.338Z,98775.91
2023-01-19T08:11:19.806Z,98754.25
2023-01-19T08:14:24.333Z,98792.81
2023-01-19T08:17:27.232Z,98790.53
2023-01-19T08:20:30.093Z,98739.59
2023-01-19T08:23:32.856Z,98730.41
2023-01-19T08:26:35.793Z,98701.69
2023-01-19T08:29:38.851Z,98753.59
2023-01-19T08:32:41.377Z,98782.56
2023-01-19T08:35:48.586Z,98740.84
2023-01-19T08:38:54.190Z,98777.38
2023-01-19T08:41:59.265Z,98765.31
2023-01-19T08:45:07.137Z,98754.75
2023-01-19T08:48:23.558Z,98799.91
2023-01-19T08:51:30.106Z,98757.03
2023-01-19T08:54:35.369Z,98801.81
2023-01-19T08:57:40.699Z,98713.78
2023-01-19T09:00:43.583Z,98725.00
2023-01-19T09:03:47.048Z,98796.72
2023-01-19T09:06:53.151Z,98799.22
2023-01-19T09:09:59.493Z,98745.19
2023-01-19T09:13:21.359Z,98702.41
2023-01-19T09:16:27.358Z,98770.75
2023-01-19T09:19:34.936Z,98710.84
2023-01-19T09:22:39.753Z,98691.47
2023-01-19T09:25:51.718Z,98800.16
2023-01-19T09:28:57.161Z,98809.47
2023-01-19T09:31:59.887Z,98783.50
2023-01-19T09:35:05.117Z,98734.25
2023-01-19T09:38:13.230Z,98773.28
2023-01-19T09:41:25.156Z,98778.97
2023-01-19T09:44:34.380Z,98788.41
2023-01-19T09:47:42.245Z,98799.94
2023-01-19T09:50:48.547Z,98726.50
2023-01-19T09:54:28.400Z,98706.81
2023-01-19T09:57:44.779Z,98795.84
2023-01-19T10:01:35.142Z,98783.09
2023-01-19T10:04:49.180Z,98698.56
2023-01-19T10:08:28.727Z,98801.06
2023-01-19T10:11:57.700Z,98780.69
2023-01-19T10:15:15.155Z,98811.31
2023-01-19T10:18:25.658Z,98790.94
2023-01-19T10:21:43.864Z,98815.28
2023-01-19T10:24:56.188Z,98828.03
2023-01-19T10:28:03.115Z,98727.69
2023-01-19T10:31:16.343Z,98794.88
2023-01-19T10:34:23.384Z,98823.56
2023-01-19T10:37:31.867Z,98822.53
2023-01-19T10:40:43.443Z,98831.75
2023-01-19T10:43:47.969Z,98831.75
2023-01-19T10:47:01.969Z,98818.63
2023-01-19T10:50:43.358Z,98827.87
2023-01-19T10:54:06.265Z,98840.84
2023-01-19T10:57:19.002Z,98818.50
2023-01-19T11:00:42.222Z,98841.06
2023-01-19T11:03:46.800Z,98792.00
2023-01-19T11:06:53.580Z,98816.84
2023-01-19T11:10:15.444Z,98770.53
2023-01-19T11:13:24.933Z,98847.16
2023-01-19T11:16:35.999Z,98841.00
2023-01-19T11:19:38.711Z,98833.81
2023-01-19T11:22:44.740Z,98775.13
2023-01-19T11:25:54.146Z,98817.47
2023-01-19T11:28:58.980Z,98831.59
2023-01-19T11:32:20.781Z,98832.28
2023-01-19T11:35:42.097Z,98828.44
2023-01-19T11:38:50.405Z,98856.41
2023-01-19T11:42:04.828Z,98851.41
2023-01-19T11:45:22.853Z,98837.03
2023-01-19T11:48:29.968Z,98778.28
2023-01-19T11:51:59.175Z,98854.38
2023-01-19T11:55:21.518Z,98858.06
2023-01-19T11:58:25.783Z,98802.19
2023-01-19T12:01:37.590Z,98866.97
2023-01-19T12:04:48.651Z,98839.12
2023-01-19T12:07:54.255Z,98874.00
2023-01-19T12:11:05.119Z,98851.19
2023-01-19T12:14:27.206Z,98875.47
2023-01-19T12:17:34.971Z,98864.16
2023-01-19T12:20:52.168Z,98898.13
2023-01-19T12:24:30.044Z,98884.12
2023-01-19T12:27:35.418Z,98914.91
2023-01-19T12:30:58.221Z,98916.63
2023-01-19T12:34:35.584Z,98908.81
2023-01-19T12:37:49.461Z,98811.13
2023-01-19T12:41:16.133Z,98866.53
2023-01-19T12:44:27.454Z,98876.81
2023-01-19T12:47:30.142Z,98915.75
2023-01-19T12:50:39.056Z,98907.03
2023-01-19T12:53:56.186Z,98904.53
2023-01-19T12:57:09.724Z,98905.44
2023-01-19T13:00:24.670Z,98933.53
2023-01-19T13:03:33.378Z,98943.31
2023-01-19T13:07:22.797Z,98955.38
2023-01-19T13:11:06.700Z,98963.41
2023-01-19T13:14:29.281Z,98979.09
2023-01-19T13:17:49.978Z,98989.63
2023-01-19T13:21:02.176Z,98905.38
2023-01-19T13:24:15.044Z,98991.22
2023-01-19T13:27:17.928Z,99006.94
2023-01-19T13:30:26.622Z,99007.06
2023-01-19T13:33:41.233Z,99008.06
2023-01-19T13:36:49.321Z,99007.19
2023-01-19T13:40:03.325Z,99012.19
2023-01-19T13:43:21.401Z,99025.37
2023-01-19T13:46:46.283Z,99022.62
2023-01-19T13:49:54.657Z,99032.91
2023-01-19T13:52:59.000Z,99010.50
2023-01-19T13:56:14.728Z,99028.34
2023-01-19T13:59:21.627Z,99022.00
2023-01-19T14:02:26.879Z,99049.41
2023-01-19T14:05:32.617Z,99057.94
2023-01-19T14:08:35.151Z,99050.31
2023-01-19T14:11:38.269Z,98984.00
2023-01-19T14:14:48.359Z,99057.88
2023-01-19T14:18:22.728Z,98929.94
2023-01-19T14:21:29.292Z,98952.59
2023-01-19T14:24:35.006Z,98927.19
2023-01-19T14:27:48.180Z,98973.34
2023-01-19T14:31:00.460Z,99036.09
2023-01-19T14:34:03.007Z,99004.56
2023-01-19T14:37:14.993Z,99077.44
2023-01-19T14:40:20.459Z,99071.37
2023-01-19T14:43:27.456Z,99043.34
2023-01-19T14:46:30.984Z,99049.00
2023-01-19T14:49:47.550Z,99021.41
2023-01-19T14:53:10.398Z,99067.50
2023-01-19T14:56:15.035Z,99092.53
2023-01-19T14:59:23.091Z,99016.22
2023-01-19T15:02:26.328Z,99105.66
2023-01-19T15:05:28.848Z,99027.81
2023-01-19T15:08:34.549Z,99143.44
2023-01-19T15:11:37.318Z,99147.97
2023-01-19T15:14:40.863Z,99139.78
2023-01-19T15:17:43.563Z,99144.59
2023-01-19T15:20:46.361Z,99147.16
2023-01-19T15:23:49.487Z,99152.75
2023-01-19T15:26:52.418Z,99156.13
2023-01-19T15:29:54.854Z,99106.75
2023-01-19T15:32:59.132Z,99127.88
2023-01-19T15:36:01.588Z,99152.59
2023-01-19T15:39:04.324Z,99163.97
2023-01-19T15:42:16.700Z,99147.63
2023-01-19T15:45:48.033Z,99183.69
2023-01-19T15:48:50.761Z,99169.44
2023-01-19T15:51:53.690Z,99165.28
2023-01-19T15:54:57.621Z,99176.34
2023-01-19T15:58:03.467Z,99112.88
2023-01-19T16:01:06.135Z,99113.88
2023-01-19T16:04:11.974Z,99206.19
2023-01-19T16:07:14.552Z,99198.63
2023-01-19T16:10:17.443Z,99229.41
2023-01-19T16:13:19.971Z,99210.16
2023-01-19T16:16:26.823Z,99222.53
2023-01-19T16:19:29.657Z,99234.69
2023-01-19T16:22:32.780Z,99250.69
2023-01-19T16:25:35.899Z,99242.53
2023-01-19T16:28:38.676Z,99263.03
2023-01-19T16:31:42.889Z,99259.03
2023-01-19T16:34:45.657Z,99270.25
2023-01-19T16:37:50.618Z,99277.97
2023-01-19T16:40:53.238Z,99288.19
2023-01-19T16:43:57.793Z,99282.88
2023-01-19T16:47:00.602Z,99312.69
2023-01-19T16:50:03.042Z,99302.56
2023-01-19T16:53:05.748Z,99310.44
2023-01-19T16:56:10.740Z,99327.12
2023-01-19T16:59:15.349Z,99341.41
2023-01-19T17:02:18.038Z,99317.00
2023-01-19T17:05:20.648Z,99339.19
2023-01-19T17:08:23.072Z,99318.94
2023-01-19T17:11:28.803Z,99355.22
2023-01-19T17:14:31.297Z,99358.59
2023-01-19T17:17:36.290Z,99348.03
2023-01-19T17:20:38.630Z,99357.31
2023-01-19T17:23:46.255Z,99372.66
2023-01-19T17:26:48.981Z,99365.53
2023-01-19T17:29:51.646Z,99373.25
2023-01-19T17:32:54.021Z,99388.38
2023-01-19T17:36:02.881Z,99379.38
2023-01-19T17:39:08.308Z,99399.91
2023-01-19T17:42:10.959Z,99286.38
2023-01-19T17:45:13.352Z,99378.88
2023-01-19T17:48:17.511Z,99400.91
2023-01-19T17:51:20.155Z,99379.53
2023-01-19T17:54:22.885Z,99384.47
2023-01-19T17:57:25.211Z,99410.97
2023-01-19T18:00:29.033Z,99387.34
2023-01-19T18:03:31.656Z,99414.97
2023-01-19T18:06:34.191Z,99413.00
2023-01-19T18:09:37.102Z,99388.16
2023-01-19T18:12:39.913Z,99424.56
2023-01-19T18:15:42.606Z,99400.00
2023-01-19T18:18:44.928Z,99384.41
2023-01-19T18:21:48.355Z,99437.72
2023-01-19T18:24:50.909Z,99429.84
2023-01-19T18:27:53.476Z,99425.84
2023-01-19T18:30:56.021Z,99407.97
2023-01-19T18:33:59.591Z,99404.31
2023-01-19T18:37:01.986Z,99410.38
2023-01-19T18:40:05.275Z,99418.09
2023-01-19T18:43:09.238Z,99454.41
2023-01-19T18:46:12.645Z,99449.91
2023-01-19T18:49:15.055Z,99457.25
2023-01-19T18:52:17.693Z,99440.25
2023-01-19T18:55:20.123Z,99420.03
2023-01-19T18:58:24.357Z,99450.69
2023-01-19T19:01:33.316Z,99449.59
2023-01-19T19:04:36.144Z,99458.88
2023-01-19T19:07:38.560Z,99452.72
2023-01-19T19:10:42.238Z,99431.81
2023-01-19T19:13:45.260Z,99462.50
2023-01-19T19:16:47.881Z,99470.97
2023-01-19T19:19:50.328Z,99468.50
2023-01-19T19:22:52.996Z,99456.81
2023-01-19T19:25:55.332Z,99472.53
2023-01-19T19:28:58.202Z,99484.03
2023-01-19T19:32:00.539Z,99491.34
2023-01-19T19:35:03.243Z,99492.97
2023-01-19T19:38:05.614Z,99490.56
2023-01-19T19:41:10.027Z,99474.09
2023-01-19T19:44:12.875Z,99488.75
2023-01-19T19:47:15.468Z,99507.44
2023-01-19T19:50:17.889Z,99501.12
2023-01-19T19:53:21.662Z,99519.44
2023-01-19T19:56:25.829Z,99527.31
2023-01-19T19:59:28.433Z,99524.16
2023-01-19T20:02:31.077Z,99495.81
2023-01-19T20:05:35.919Z,99513.78
2023-01-19T20:08:38.248Z,99534.50
2023-01-19T20:13:27.270Z,99528.00
2023-01-19T20:16:30.132Z,99528.00
2023-01-19T20:19:32.731Z,99530.59
2023-01-19T20:22:35.451Z,99521.41
2023-01-19T20:25:39.746Z,99489.19
2023-01-19T20:28:42.580Z,99497.72
2023-01-19T20:31:48.949Z,99510.22
2023-01-19T20:34:51.840Z,99514.66
2023-01-19T20:37:54.358Z,99515.59
2023-01-19T20:40:57.292Z,99535.00
2023-01-19T20:43:59.641Z,99513.59
2023-01-19T20:47:02.253Z,99543.91
2023-01-19T20:50:06.436Z,99554.28
2023-01-19T20:53:09.061Z,99534.47
2023-01-19T20:56:13.972Z,99551.16
2023-01-19T20:59:17.373Z,99542.59
2023-01-19T21:02:20.989Z,99508.28
2023-01-19T21:05:24.220Z,99528.78
2023-01-19T21:08:26.544Z,99501.81
2023-01-19T21:11:29.528Z,99540.06
2023-01-19T21:14:32.000Z,99546.25
2023-01-19T21:17:34.644Z,99547.47
2023-01-19T21:20:37.128Z,99444.31
2023-01-19T21:23:39.772Z,99543.31
2023-01-19T21:26:42.182Z,99535.47
2023-01-19T21:29:44.865Z,99533.00
2023-01-19T21:32:47.414Z,99543.69
2023-01-19T21:35:55.409Z,99553.88
2023-01-19T21:39:00.602Z,99542.34
2023-01-19T21:42:03.723Z,99549.19
2023-01-19T21:45:07.976Z,99568.13
2023-01-19T21:48:10.707Z,99591.91
2023-01-19T21:51:14.367Z,99570.66
2023-01-19T21:54:17.329Z,99581.44
2023-01-19T21:57:19.783Z,99669.50
2023-01-19T22:00:22.797Z,99680.28
2023-01-19T22:03:27.327Z,99671.69
2023-01-19T22:06:29.763Z,99648.72
2023-01-19T22:09:36.252Z,99623.59
2023-01-19T22:12:40.307Z,99575.66
2023-01-19T22:15:43.117Z,99606.66
2023-01-19T22:18:49.952Z,99616.12
2023-01-19T22:21:52.616Z,99602.34
2023-01-19T22:24:55.007Z,99593.50
2023-01-19T22:27:58.681Z,99585.31
2023-01-19T22:31:09.009Z,99589.25
2023-01-19T22:34:12.010Z,99618.84
2023-01-19T22:37:14.483Z,99608.78
2023-01-19T22:40:18.517Z,99627.84
2023-01-19T22:43:20.932Z,99589.66
2023-01-19T22:46:28.086Z,99555.41
2023-01-19T22:49:33.205Z,99605.56
2023-01-19T22:52:35.874Z,99615.03
2023-01-19T22:55:38.362Z,99585.62
2023-01-19T22:58:51.249Z,99598.13
2023-01-19T23:02:01.037Z,99585.25
2023-01-19T23:05:04.111Z,99590.84
2023-01-19T23:08:06.508Z,99608.66
2023-01-19T23:11:22.797Z,99600.50
2023-01-19T23:14:25.267Z,99588.19
2023-01-19T23:17:27.903Z,99569.56
2023-01-19T23:20:30.240Z,99566.84
2023-01-19T23:23:33.970Z,99505.34
2023-01-19T23:26:39.126Z,99568.84
2023-01-19T23:29:41.794Z,99521.63
2023-01-19T23:32:48.551Z,99573.66
2023-01-19T23:35:51.278Z,99574.16
2023-01-19T23:38:56.797Z,99583.44
2023-01-19T23:41:59.461Z,99585.16
2023-01-19T23:45:01.951Z,99587.97
2023-01-19T23:48:04.750Z,99577.34
2023-01-19T23:51:09.102Z,99595.66
2023-01-19T23:54:12.423Z,99607.44
2023-01-19T23:57:14.766Z,99609.69
